createdAt,value
2018-12-07T00:00:10.529Z,1006.42
2018-12-07T00:01:10.528Z,1006.37
2018-12-07T00:02:10.507Z,1006.41
2018-12-07T00:03:10.497Z,1006.34
2018-12-07T00:04:10.485Z,1006.38
2018-12-07T00:05:10.476Z,1006.39
2018-12-07T00:06:10.490Z,1006.37
2018-12-07T00:07:10.457Z,1006.38
2018-12-07T00:08:10.443Z,1006.44
2018-12-07T00:09:10.431Z,1006.37
2018-12-07T00:10:10.421Z,1006.34
2018-12-07T00:11:10.424Z,1006.35
2018-12-07T00:12:10.400Z,1006.34
2018-12-07T00:13:10.389Z,1006.30
2018-12-07T00:14:10.381Z,1006.31
2018-12-07T00:15:10.368Z,1006.27
2018-12-07T00:16:10.370Z,1006.21
2018-12-07T00:17:10.347Z,1006.27
2018-12-07T00:18:10.336Z,1006.31
2018-12-07T00:19:10.325Z,1006.28
2018-12-07T00:20:10.313Z,1006.32
2018-12-07T00:21:10.312Z,1006.29
2018-12-07T00:22:10.292Z,1006.34
2018-12-07T00:23:10.284Z,1006.28
2018-12-07T00:24:10.277Z,1006.24
2018-12-07T00:25:10.260Z,1006.27
2018-12-07T00:26:10.257Z,1006.26
2018-12-07T00:27:10.238Z,1006.24
2018-12-07T00:28:10.229Z,1006.18
2018-12-07T00:29:10.222Z,1006.11
2018-12-07T00:30:10.206Z,1006.10
2018-12-07T00:31:10.371Z,1006.14
2018-12-07T00:32:10.186Z,1006.03
2018-12-07T00:33:10.177Z,1006.04
2018-12-07T00:34:10.168Z,1005.99
2018-12-07T00:35:10.153Z,1005.97
2018-12-07T00:36:10.142Z,1005.99
2018-12-07T00:37:10.142Z,1005.92
2018-12-07T00:38:10.122Z,1005.88
2018-12-07T00:39:10.110Z,1005.87
2018-12-07T00:40:10.099Z,1005.87
2018-12-07T00:41:10.088Z,1005.91
2018-12-07T00:42:10.094Z,1005.88
2018-12-07T00:43:10.069Z,1005.92
2018-12-07T00:44:10.055Z,1005.95
2018-12-07T00:45:10.052Z,1005.97
2018-12-07T00:46:10.036Z,1006.04
2018-12-07T00:47:10.039Z,1006.03
2018-12-07T00:48:10.012Z,1006.00
2018-12-07T00:49:10.002Z,1005.98
2018-12-07T00:50:09.993Z,1005.99
2018-12-07T00:51:09.982Z,1005.95
2018-12-07T00:52:09.978Z,1005.97
2018-12-07T00:53:09.961Z,1005.98
2018-12-07T00:54:09.953Z,1005.93
2018-12-07T00:55:09.938Z,1005.96
2018-12-07T00:56:09.928Z,1005.89
2018-12-07T00:57:09.925Z,1005.87
2018-12-07T00:58:09.920Z,1005.86
2018-12-07T00:59:09.899Z,1005.82
2018-12-07T01:00:09.885Z,1005.80
2018-12-07T01:01:09.875Z,1005.80
2018-12-07T01:02:09.877Z,1005.70
2018-12-07T01:03:09.861Z,1005.68
2018-12-07T01:04:09.846Z,1005.67
2018-12-07T01:05:09.832Z,1005.67
2018-12-07T01:06:09.885Z,1005.62
2018-12-07T01:07:09.816Z,1005.56
2018-12-07T01:08:09.803Z,1005.59
2018-12-07T01:09:09.789Z,1005.53
2018-12-07T01:10:09.789Z,1005.58
2018-12-07T01:11:09.766Z,1005.57
2018-12-07T01:12:09.764Z,1005.57
2018-12-07T01:13:09.746Z,1005.59
2018-12-07T01:14:09.733Z,1005.54
2018-12-07T01:15:09.733Z,1005.61
2018-12-07T01:16:09.715Z,1005.56
2018-12-07T01:17:09.710Z,1005.62
2018-12-07T01:18:09.691Z,1005.64
2018-12-07T01:19:09.681Z,1005.60
2018-12-07T01:20:09.669Z,1005.58
2018-12-07T01:21:09.660Z,1005.60
2018-12-07T01:22:09.678Z,1005.56
2018-12-07T01:23:09.640Z,1005.56
2018-12-07T01:24:09.627Z,1005.49
2018-12-07T01:25:09.615Z,1005.54
2018-12-07T01:26:09.604Z,1005.53
2018-12-07T01:27:09.601Z,1005.53
2018-12-07T01:28:09.590Z,1005.51
2018-12-07T01:29:09.571Z,1005.47
2018-12-07T01:30:09.562Z,1005.52
2018-12-07T01:31:09.551Z,1005.53
2018-12-07T01:32:09.541Z,1005.47
2018-12-07T01:33:09.537Z,1005.52
2018-12-07T01:34:09.517Z,1005.50
2018-12-07T01:35:09.506Z,1005.55
2018-12-07T01:36:09.495Z,1005.54
2018-12-07T01:37:09.488Z,1005.51
2018-12-07T01:38:09.482Z,1005.50
2018-12-07T01:39:09.463Z,1005.51
2018-12-07T01:40:09.453Z,1005.54
2018-12-07T01:41:09.442Z,1005.48
2018-12-07T01:42:09.431Z,1005.58
2018-12-07T01:43:09.428Z,1005.57
2018-12-07T01:44:09.413Z,1005.52
2018-12-07T01:45:09.401Z,1005.58
2018-12-07T01:46:09.389Z,1005.53
2018-12-07T01:47:09.377Z,1005.50
2018-12-07T01:48:09.378Z,1005.45
2018-12-07T01:49:09.355Z,1005.46
2018-12-07T01:50:09.350Z,1005.46
2018-12-07T01:51:09.338Z,1005.45
2018-12-07T01:52:09.324Z,1005.43
2018-12-07T01:53:09.320Z,1005.37
2018-12-07T01:54:09.306Z,1005.39
2018-12-07T01:55:09.293Z,1005.38
2018-12-07T01:56:09.289Z,1005.35
2018-12-07T01:57:09.270Z,1005.37
2018-12-07T01:58:09.267Z,1005.30
2018-12-07T01:59:09.249Z,1005.32
2018-12-07T02:00:09.236Z,1005.30
2018-12-07T02:01:09.228Z,1005.36
2018-12-07T02:02:09.219Z,1005.29
2018-12-07T02:03:09.218Z,1005.25
2018-12-07T02:04:09.193Z,1005.26
2018-12-07T02:05:09.183Z,1005.21
2018-12-07T02:06:09.177Z,1005.26
2018-12-07T02:07:09.161Z,1005.12
2018-12-07T02:08:09.192Z,1005.12
2018-12-07T02:09:09.145Z,1005.11
2018-12-07T02:10:09.129Z,1005.12
2018-12-07T02:11:09.118Z,1005.10
2018-12-07T02:12:09.108Z,1005.08
2018-12-07T02:13:09.101Z,1005.06
2018-12-07T02:14:09.099Z,1005.02
2018-12-07T02:15:09.075Z,1004.99
2018-12-07T02:16:09.064Z,1004.98
2018-12-07T02:17:09.054Z,1004.98
2018-12-07T02:18:09.043Z,1004.97
2018-12-07T02:19:09.049Z,1004.97
2018-12-07T02:20:09.021Z,1004.92
2018-12-07T02:21:09.011Z,1005.00
2018-12-07T02:22:09.001Z,1004.96
2018-12-07T02:23:08.989Z,1004.95
2018-12-07T02:24:08.993Z,1004.87
2018-12-07T02:25:08.971Z,1004.89
2018-12-07T02:26:08.960Z,1004.79
2018-12-07T02:27:08.947Z,1004.89
2018-12-07T02:28:08.935Z,1004.86
2018-12-07T02:29:08.933Z,1004.91
2018-12-07T02:30:08.917Z,1004.93
2018-12-07T02:31:08.914Z,1004.88
2018-12-07T02:32:08.896Z,1004.86
2018-12-07T02:33:08.884Z,1004.90
2018-12-07T02:34:08.880Z,1004.88
2018-12-07T02:35:08.862Z,1004.88
2018-12-07T02:36:08.853Z,1004.84
2018-12-07T02:37:08.846Z,1004.84
2018-12-07T02:38:08.827Z,1004.83
2018-12-07T02:39:08.826Z,1004.79
2018-12-07T02:40:08.812Z,1004.71
2018-12-07T02:41:08.795Z,1004.76
2018-12-07T02:42:08.785Z,1004.68
2018-12-07T02:43:08.779Z,1004.70
2018-12-07T02:44:08.763Z,1004.65
2018-12-07T02:45:08.761Z,1004.66
2018-12-07T02:46:08.744Z,1004.63
2018-12-07T02:47:08.731Z,1004.59
2018-12-07T02:48:08.723Z,1004.59
2018-12-07T02:49:08.709Z,1004.59
2018-12-07T02:50:08.709Z,1004.61
2018-12-07T02:51:08.687Z,1004.59
2018-12-07T02:52:08.676Z,1004.56
2018-12-07T02:53:08.669Z,1004.54
2018-12-07T02:54:08.661Z,1004.55
2018-12-07T02:55:08.652Z,1004.57
2018-12-07T02:56:08.636Z,1004.54
2018-12-07T02:57:08.631Z,1004.51
2018-12-07T02:58:08.612Z,1004.47
2018-12-07T02:59:08.602Z,1004.48
2018-12-07T03:00:08.603Z,1004.41
2018-12-07T03:01:08.580Z,1004.40
2018-12-07T03:02:08.580Z,1004.42
2018-12-07T03:03:08.559Z,1004.39
2018-12-07T03:04:08.549Z,1004.42
2018-12-07T03:05:08.547Z,1004.39
2018-12-07T03:06:08.538Z,1004.36
2018-12-07T03:07:08.516Z,1004.34
2018-12-07T03:08:08.506Z,1004.28
2018-12-07T03:09:08.495Z,1004.31
2018-12-07T03:10:08.497Z,1004.31
2018-12-07T03:11:08.478Z,1004.31
2018-12-07T03:12:08.483Z,1004.28
2018-12-07T03:13:08.451Z,1004.29
2018-12-07T03:14:08.443Z,1004.30
2018-12-07T03:15:08.441Z,1004.23
2018-12-07T03:16:08.420Z,1004.21
2018-12-07T03:17:08.414Z,1004.20
2018-12-07T03:18:08.399Z,1004.20
2018-12-07T03:19:08.387Z,1004.14
2018-12-07T03:20:08.384Z,1004.15
2018-12-07T03:21:08.368Z,1004.11
2018-12-07T03:22:08.355Z,1004.12
2018-12-07T03:23:08.346Z,1004.16
2018-12-07T03:24:08.335Z,1004.12
2018-12-07T03:25:08.358Z,1004.11
2018-12-07T03:26:08.313Z,1004.17
2018-12-07T03:27:08.302Z,1004.13
2018-12-07T03:28:08.292Z,1004.20
2018-12-07T03:29:08.287Z,1004.12
2018-12-07T03:30:08.270Z,1004.12
2018-12-07T03:31:08.269Z,1004.08
2018-12-07T03:32:08.249Z,1004.12
2018-12-07T03:33:08.241Z,1004.10
2018-12-07T03:34:08.231Z,1004.16
2018-12-07T03:35:08.227Z,1004.12
2018-12-07T03:36:08.213Z,1004.09
2018-12-07T03:37:08.194Z,1003.98
2018-12-07T03:38:08.184Z,1004.02
2018-12-07T03:39:08.173Z,1004.02
2018-12-07T03:40:08.164Z,1004.03
2018-12-07T03:41:08.161Z,1004.07
2018-12-07T03:42:08.142Z,1004.07
2018-12-07T03:43:08.130Z,1004.01
2018-12-07T03:44:08.119Z,1004.00
2018-12-07T03:45:08.113Z,1003.98
2018-12-07T03:46:08.114Z,1003.97
2018-12-07T03:47:08.087Z,1003.98
2018-12-07T03:48:08.077Z,1003.92
2018-12-07T03:49:08.066Z,1003.96
2018-12-07T03:50:08.055Z,1003.87
2018-12-07T03:51:08.053Z,1003.96
2018-12-07T03:52:08.037Z,1003.91
2018-12-07T03:53:08.023Z,1003.96
2018-12-07T03:54:08.014Z,1003.91
2018-12-07T03:55:08.002Z,1003.91
2018-12-07T03:56:08.003Z,1003.86
2018-12-07T03:57:07.981Z,1003.83
2018-12-07T03:58:07.972Z,1003.78
2018-12-07T03:59:07.960Z,1003.85
2018-12-07T04:00:07.948Z,1003.79
2018-12-07T04:01:07.940Z,1003.74
2018-12-07T04:02:07.941Z,1003.77
2018-12-07T04:03:07.918Z,1003.75
2018-12-07T04:04:07.912Z,1003.77
2018-12-07T04:05:07.895Z,1003.79
2018-12-07T04:06:07.885Z,1003.81
2018-12-07T04:07:07.899Z,1003.77
2018-12-07T04:08:07.861Z,1003.76
2018-12-07T04:09:07.853Z,1003.71
2018-12-07T04:10:07.855Z,1003.78
2018-12-07T04:11:07.831Z,1003.76
2018-12-07T04:12:07.827Z,1003.71
2018-12-07T04:13:07.814Z,1003.77
2018-12-07T04:14:07.799Z,1003.74
2018-12-07T04:15:07.790Z,1003.69
2018-12-07T04:16:07.798Z,1003.69
2018-12-07T04:17:07.775Z,1003.73
2018-12-07T04:18:07.757Z,1003.70
2018-12-07T04:19:07.747Z,1003.64
2018-12-07T04:20:07.740Z,1003.70
2018-12-07T04:21:07.726Z,1003.70
2018-12-07T04:22:07.724Z,1003.65
2018-12-07T04:23:07.705Z,1003.62
2018-12-07T04:24:07.693Z,1003.62
2018-12-07T04:25:07.681Z,1003.59
2018-12-07T04:26:07.670Z,1003.67
2018-12-07T04:27:07.668Z,1003.63
2018-12-07T04:28:07.650Z,1003.67
2018-12-07T04:29:07.642Z,1003.65
2018-12-07T04:30:07.628Z,1003.66
2018-12-07T04:31:07.616Z,1003.70
2018-12-07T04:32:07.615Z,1003.67
2018-12-07T04:33:07.602Z,1003.62
2018-12-07T04:34:07.584Z,1003.68
2018-12-07T04:35:07.578Z,1003.65
2018-12-07T04:36:07.917Z,1003.64
2018-12-07T04:37:07.594Z,1003.62
2018-12-07T04:38:07.544Z,1003.67
2018-12-07T04:39:07.536Z,1003.68
2018-12-07T04:40:07.524Z,1003.68
2018-12-07T04:41:07.509Z,1003.66
2018-12-07T04:42:07.499Z,1003.65
2018-12-07T04:43:07.499Z,1003.64
2018-12-07T04:44:07.477Z,1003.62
2018-12-07T04:45:07.474Z,1003.66
2018-12-07T04:46:07.456Z,1003.69
2018-12-07T04:47:07.446Z,1003.68
2018-12-07T04:48:07.444Z,1003.59
2018-12-07T04:49:07.428Z,1003.63
2018-12-07T04:50:07.416Z,1003.59
2018-12-07T04:51:07.415Z,1003.61
2018-12-07T04:52:07.392Z,1003.63
2018-12-07T04:53:07.390Z,1003.57
2018-12-07T04:54:07.371Z,1003.56
2018-12-07T04:55:07.366Z,1003.56
2018-12-07T04:56:07.357Z,1003.52
2018-12-07T04:57:07.342Z,1003.53
2018-12-07T04:58:07.336Z,1003.55
2018-12-07T04:59:07.317Z,1003.57
2018-12-07T05:00:07.310Z,1003.55
2018-12-07T05:01:07.296Z,1003.55
2018-12-07T05:02:07.293Z,1003.60
2018-12-07T05:03:07.288Z,1003.53
2018-12-07T05:04:07.267Z,1003.47
2018-12-07T05:05:07.254Z,1003.55
2018-12-07T05:06:07.243Z,1003.48
2018-12-07T05:07:07.233Z,1003.41
2018-12-07T05:08:07.265Z,1003.43
2018-12-07T05:09:07.211Z,1003.42
2018-12-07T05:10:07.200Z,1003.45
2018-12-07T05:11:07.190Z,1003.45
2018-12-07T05:12:07.179Z,1003.45
2018-12-07T05:13:07.171Z,1003.44
2018-12-07T05:14:07.165Z,1003.38
2018-12-07T05:15:07.146Z,1003.44
2018-12-07T05:16:07.137Z,1003.42
2018-12-07T05:17:07.128Z,1003.41
2018-12-07T05:18:07.115Z,1003.41
2018-12-07T05:19:07.114Z,1003.45
2018-12-07T05:20:07.102Z,1003.46
2018-12-07T05:21:07.082Z,1003.40
2018-12-07T05:22:07.070Z,1003.41
2018-12-07T05:23:07.067Z,1003.44
2018-12-07T05:24:07.059Z,1003.42
2018-12-07T05:25:07.040Z,1003.44
2018-12-07T05:26:07.028Z,1003.37
2018-12-07T05:27:07.018Z,1003.40
2018-12-07T05:28:07.006Z,1003.41
2018-12-07T05:29:07.005Z,1003.40
2018-12-07T05:30:06.988Z,1003.43
2018-12-07T05:31:06.977Z,1003.40
2018-12-07T05:32:06.964Z,1003.39
2018-12-07T05:33:06.953Z,1003.39
2018-12-07T05:34:06.950Z,1003.36
2018-12-07T05:35:06.931Z,1003.38
2018-12-07T05:36:06.919Z,1003.36
2018-12-07T05:37:06.909Z,1003.37
2018-12-07T05:38:06.904Z,1003.33
2018-12-07T05:39:06.923Z,1003.34
2018-12-07T05:40:06.877Z,1003.34
2018-12-07T05:41:06.867Z,1003.34
2018-12-07T05:42:06.856Z,1003.32
2018-12-07T05:43:06.851Z,1003.33
2018-12-07T05:44:06.836Z,1003.33
2018-12-07T05:45:06.832Z,1003.36
2018-12-07T05:46:06.813Z,1003.34
2018-12-07T05:47:06.803Z,1003.34
2018-12-07T05:48:06.794Z,1003.38
2018-12-07T05:49:06.783Z,1003.37
2018-12-07T05:50:06.778Z,1003.44
2018-12-07T05:51:06.759Z,1003.36
2018-12-07T05:52:06.749Z,1003.35
2018-12-07T05:53:06.738Z,1003.39
2018-12-07T05:54:06.728Z,1003.35
2018-12-07T05:55:06.728Z,1003.36
2018-12-07T05:56:06.706Z,1003.32
2018-12-07T05:57:06.696Z,1003.29
2018-12-07T05:58:06.686Z,1003.33
2018-12-07T05:59:06.675Z,1003.33
2018-12-07T06:00:06.673Z,1003.29
2018-12-07T06:01:06.652Z,1003.29
2018-12-07T06:02:06.643Z,1003.33
2018-12-07T06:03:06.631Z,1003.34
2018-12-07T06:04:06.621Z,1003.35
2018-12-07T06:05:06.620Z,1003.37
2018-12-07T06:06:06.599Z,1003.30
2018-12-07T06:07:06.591Z,1003.34
2018-12-07T06:08:06.577Z,1003.29
2018-12-07T06:09:06.566Z,1003.23
2018-12-07T06:10:06.564Z,1003.30
2018-12-07T06:11:06.545Z,1003.25
2018-12-07T06:12:06.540Z,1003.25
2018-12-07T06:13:06.524Z,1003.25
2018-12-07T06:14:06.514Z,1003.28
2018-12-07T06:15:06.531Z,1003.28
2018-12-07T06:16:06.499Z,1003.24
2018-12-07T06:17:06.482Z,1003.29
2018-12-07T06:18:06.480Z,1003.28
2018-12-07T06:19:06.460Z,1003.29
2018-12-07T06:20:06.449Z,1003.23
2018-12-07T06:21:06.449Z,1003.26
2018-12-07T06:22:06.431Z,1003.27
2018-12-07T06:23:06.418Z,1003.24
2018-12-07T06:24:06.409Z,1003.24
2018-12-07T06:25:06.400Z,1003.28
2018-12-07T06:26:06.393Z,1003.25
2018-12-07T06:27:06.414Z,1003.24
2018-12-07T06:28:06.366Z,1003.26
2018-12-07T06:29:06.352Z,1003.23
2018-12-07T06:30:06.347Z,1003.23
2018-12-07T06:31:06.342Z,1003.22
2018-12-07T06:32:06.321Z,1003.20
2018-12-07T06:33:06.310Z,1003.21
2018-12-07T06:34:06.299Z,1003.17
2018-12-07T06:35:06.292Z,1003.18
2018-12-07T06:36:06.286Z,1003.19
2018-12-07T06:37:06.272Z,1003.12
2018-12-07T06:38:06.257Z,1003.17
2018-12-07T06:39:06.247Z,1003.11
2018-12-07T06:40:06.239Z,1003.13
2018-12-07T06:41:06.251Z,1003.12
2018-12-07T06:42:06.213Z,1003.14
2018-12-07T06:43:06.202Z,1003.09
2018-12-07T06:44:06.193Z,1003.13
2018-12-07T06:45:06.181Z,1003.14
2018-12-07T06:46:06.171Z,1003.12
2018-12-07T06:47:06.170Z,1003.11
2018-12-07T06:48:06.149Z,1003.09
2018-12-07T06:49:06.138Z,1003.09
2018-12-07T06:50:06.127Z,1003.11
2018-12-07T06:51:06.117Z,1003.13
2018-12-07T06:52:06.115Z,1003.10
2018-12-07T06:53:06.096Z,1003.13
2018-12-07T06:54:06.085Z,1003.10
2018-12-07T06:55:06.086Z,1003.06
2018-12-07T06:56:06.064Z,1003.03
2018-12-07T06:57:06.066Z,1003.09
2018-12-07T06:58:06.043Z,1003.06
2018-12-07T06:59:06.039Z,1003.06
2018-12-07T07:00:06.023Z,1003.05
2018-12-07T07:01:06.010Z,1003.05
2018-12-07T07:02:06.009Z,1003.06
2018-12-07T07:03:05.989Z,1003.07
2018-12-07T07:04:05.978Z,1002.98
2018-12-07T07:05:05.973Z,1002.96
2018-12-07T07:06:05.957Z,1002.98
2018-12-07T07:07:05.955Z,1003.00
2018-12-07T07:08:05.935Z,1002.95
2018-12-07T07:09:05.931Z,1002.97
2018-12-07T07:10:05.915Z,1002.94
2018-12-07T07:11:05.910Z,1002.97
2018-12-07T07:12:05.950Z,1002.98
2018-12-07T07:13:05.881Z,1002.96
2018-12-07T07:14:05.872Z,1002.98
2018-12-07T07:15:05.869Z,1002.97
2018-12-07T07:16:05.854Z,1002.96
2018-12-07T07:17:05.839Z,1002.91
2018-12-07T07:18:05.837Z,1002.92
2018-12-07T07:19:05.818Z,1002.94
2018-12-07T07:20:05.807Z,1002.96
2018-12-07T07:21:05.797Z,1002.96
2018-12-07T07:22:05.785Z,1002.99
2018-12-07T07:23:05.788Z,1003.00
2018-12-07T07:24:05.764Z,1002.94
2018-12-07T07:25:05.754Z,1002.99
2018-12-07T07:26:05.748Z,1003.05
2018-12-07T07:27:05.733Z,1003.02
2018-12-07T07:28:05.731Z,1003.00
2018-12-07T07:29:05.711Z,1002.97
2018-12-07T07:30:05.700Z,1003.05
2018-12-07T07:31:05.689Z,1003.06
2018-12-07T07:32:05.679Z,1003.04
2018-12-07T07:33:05.684Z,1003.02
2018-12-07T07:34:05.661Z,1003.02
2018-12-07T07:35:05.650Z,1003.06
2018-12-07T07:36:05.640Z,1003.00
2018-12-07T07:37:05.624Z,1003.02
2018-12-07T07:38:05.623Z,1003.00
2018-12-07T07:39:05.604Z,1002.95
2018-12-07T07:40:05.595Z,1002.95
2018-12-07T07:41:05.588Z,1002.95
2018-12-07T07:42:05.574Z,1002.91
2018-12-07T07:43:05.570Z,1002.87
2018-12-07T07:44:05.551Z,1002.93
2018-12-07T07:45:05.542Z,1002.95
2018-12-07T07:46:05.532Z,1002.92
2018-12-07T07:47:05.517Z,1002.93
2018-12-07T07:48:05.525Z,1002.95
2018-12-07T07:49:05.550Z,1002.93
2018-12-07T07:50:05.491Z,1002.87
2018-12-07T07:51:05.482Z,1002.80
2018-12-07T07:52:05.465Z,1002.86
2018-12-07T07:53:05.463Z,1002.76
2018-12-07T07:54:05.444Z,1002.83
2018-12-07T07:55:05.443Z,1002.77
2018-12-07T07:56:05.426Z,1002.76
2018-12-07T07:57:05.412Z,1002.68
2018-12-07T07:58:05.430Z,1002.69
2018-12-07T07:59:05.391Z,1002.70
2018-12-07T08:00:05.380Z,1002.70
2018-12-07T08:01:05.368Z,1002.71
2018-12-07T08:02:05.358Z,1002.67
2018-12-07T08:03:05.352Z,1002.72
2018-12-07T08:04:05.351Z,1002.68
2018-12-07T08:05:05.327Z,1002.63
2018-12-07T08:06:05.315Z,1002.64
2018-12-07T08:07:05.304Z,1002.62
2018-12-07T08:08:05.294Z,1002.60
2018-12-07T08:09:05.291Z,1002.63
2018-12-07T08:10:05.275Z,1002.56
2018-12-07T08:11:05.262Z,1002.52
2018-12-07T08:12:05.251Z,1002.61
2018-12-07T08:13:05.240Z,1002.54
2018-12-07T08:14:05.238Z,1002.50
2018-12-07T08:15:05.222Z,1002.48
2018-12-07T08:16:05.207Z,1002.48
2018-12-07T08:17:05.197Z,1002.49
2018-12-07T08:18:05.187Z,1002.47
2018-12-07T08:19:05.185Z,1002.46
2018-12-07T08:20:05.168Z,1002.43
2018-12-07T08:21:05.157Z,1002.41
2018-12-07T08:22:05.145Z,1002.45
2018-12-07T08:23:05.133Z,1002.44
2018-12-07T08:24:05.132Z,1002.47
2018-12-07T08:25:05.112Z,1002.42
2018-12-07T08:26:05.106Z,1002.42
2018-12-07T08:27:05.091Z,1002.37
2018-12-07T08:28:05.081Z,1002.42
2018-12-07T08:29:05.078Z,1002.42
2018-12-07T08:30:05.059Z,1002.40
2018-12-07T08:31:05.048Z,1002.44
2018-12-07T08:32:05.037Z,1002.43
2018-12-07T08:33:05.029Z,1002.46
2018-12-07T08:34:05.025Z,1002.43
2018-12-07T08:35:05.004Z,1002.41
2018-12-07T08:36:04.994Z,1002.40
2018-12-07T08:37:04.983Z,1002.39
2018-12-07T08:38:04.973Z,1002.43
2018-12-07T08:39:04.973Z,1002.34
2018-12-07T08:40:04.952Z,1002.36
2018-12-07T08:41:04.941Z,1002.37
2018-12-07T08:42:06.905Z,1002.36
2018-12-07T08:43:04.919Z,1002.41
2018-12-07T08:44:04.925Z,1002.39
2018-12-07T08:45:04.900Z,1002.40
2018-12-07T08:46:04.890Z,1002.33
2018-12-07T08:47:04.876Z,1002.30
2018-12-07T08:48:04.866Z,1002.38
2018-12-07T08:49:04.863Z,1002.29
2018-12-07T08:50:04.850Z,1002.29
2018-12-07T08:51:04.833Z,1002.29
2018-12-07T08:52:04.824Z,1002.31
2018-12-07T08:53:04.812Z,1002.28
2018-12-07T08:54:04.836Z,1002.28
2018-12-07T08:55:04.794Z,1002.29
2018-12-07T08:56:04.785Z,1002.27
2018-12-07T08:57:04.770Z,1002.26
2018-12-07T08:58:04.762Z,1002.30
2018-12-07T08:59:04.750Z,1002.22
2018-12-07T09:00:04.748Z,1002.23
2018-12-07T09:01:04.734Z,1002.26
2018-12-07T09:02:04.731Z,1002.25
2018-12-07T09:03:04.711Z,1002.22
2018-12-07T09:04:04.696Z,1002.23
2018-12-07T09:05:04.694Z,1002.23
2018-12-07T09:06:04.688Z,1002.24
2018-12-07T09:07:04.664Z,1002.22
2018-12-07T09:08:04.653Z,1002.21
2018-12-07T09:09:04.642Z,1002.21
2018-12-07T09:10:04.641Z,1002.21
2018-12-07T09:11:04.621Z,1002.22
2018-12-07T09:12:04.613Z,1002.18
2018-12-07T09:13:04.599Z,1002.23
2018-12-07T09:14:04.589Z,1002.15
2018-12-07T09:15:04.634Z,1002.18
2018-12-07T09:16:04.569Z,1002.14
2018-12-07T09:17:04.556Z,1002.17
2018-12-07T09:18:04.547Z,1002.11
2018-12-07T09:19:04.536Z,1002.09
2018-12-07T09:20:04.532Z,1002.09
2018-12-07T09:21:04.513Z,1002.11
2018-12-07T09:22:04.504Z,1002.08
2018-12-07T09:23:04.494Z,1002.08
2018-12-07T09:24:04.485Z,1002.07
2018-12-07T09:25:04.480Z,1002.06
2018-12-07T09:26:04.462Z,1002.04
2018-12-07T09:27:04.450Z,1002.02
2018-12-07T09:28:04.439Z,1002.01
2018-12-07T09:29:04.429Z,1001.96
2018-12-07T09:30:04.429Z,1001.93
2018-12-07T09:31:04.409Z,1001.92
2018-12-07T09:32:04.397Z,1001.96
2018-12-07T09:33:04.387Z,1001.90
2018-12-07T09:34:04.378Z,1001.89
2018-12-07T09:35:04.374Z,1001.90
2018-12-07T09:36:04.355Z,1001.85
2018-12-07T09:37:04.346Z,1001.87
2018-12-07T09:38:04.334Z,1001.88
2018-12-07T09:39:04.322Z,1001.89
2018-12-07T09:40:04.338Z,1001.80
2018-12-07T09:41:04.301Z,1001.83
2018-12-07T09:42:04.291Z,1001.79
2018-12-07T09:43:04.279Z,1001.78
2018-12-07T09:44:04.270Z,1001.76
2018-12-07T09:45:04.259Z,1001.74
2018-12-07T09:46:04.256Z,1001.69
2018-12-07T09:47:04.242Z,1001.70
2018-12-07T09:48:04.227Z,1001.71
2018-12-07T09:49:04.216Z,1001.69
2018-12-07T09:50:04.205Z,1001.64
2018-12-07T09:51:04.207Z,1001.68
2018-12-07T09:52:04.185Z,1001.63
2018-12-07T09:53:04.179Z,1001.63
2018-12-07T09:54:04.163Z,1001.61
2018-12-07T09:55:04.152Z,1001.59
2018-12-07T09:56:04.151Z,1001.56
2018-12-07T09:57:04.131Z,1001.58
2018-12-07T09:58:04.120Z,1001.51
2018-12-07T09:59:04.112Z,1001.50
2018-12-07T10:00:04.101Z,1001.48
2018-12-07T10:01:04.096Z,1001.43
2018-12-07T10:02:04.080Z,1001.47
2018-12-07T10:03:04.067Z,1001.45
2018-12-07T10:04:04.057Z,1001.45
2018-12-07T10:05:04.051Z,1001.43
2018-12-07T10:06:04.045Z,1001.45
2018-12-07T10:07:04.026Z,1001.42
2018-12-07T10:08:04.014Z,1001.41
2018-12-07T10:09:04.006Z,1001.42
2018-12-07T10:10:03.993Z,1001.41
2018-12-07T10:11:04.020Z,1001.41
2018-12-07T10:12:03.985Z,1001.29
2018-12-07T10:13:07.915Z,1001.23
2018-12-07T10:14:03.952Z,1001.20
2018-12-07T10:15:03.946Z,1001.19
2018-12-07T10:16:03.931Z,1001.22
2018-12-07T10:17:03.929Z,1001.20
2018-12-07T10:18:03.913Z,1001.18
2018-12-07T10:19:03.900Z,1001.18
2018-12-07T10:20:03.888Z,1001.18
2018-12-07T10:21:03.879Z,1001.13
2018-12-07T10:22:03.878Z,1001.13
2018-12-07T10:23:03.935Z,1001.06
2018-12-07T10:24:03.846Z,1001.08
2018-12-07T10:25:03.835Z,1000.97
2018-12-07T10:26:03.824Z,1001.04
2018-12-07T10:27:03.823Z,1000.97
2018-12-07T10:28:03.809Z,1000.94
2018-12-07T10:29:03.798Z,1000.94
2018-12-07T10:30:03.783Z,1000.86
2018-12-07T10:31:03.775Z,1000.86
2018-12-07T10:32:03.770Z,1000.86
2018-12-07T10:33:03.750Z,1000.83
2018-12-07T10:34:03.741Z,1000.78
2018-12-07T10:35:03.729Z,1000.79
2018-12-07T10:36:03.719Z,1000.74
2018-12-07T10:37:03.718Z,1000.71
2018-12-07T10:38:03.698Z,1000.77
2018-12-07T10:39:03.688Z,1000.70
2018-12-07T10:40:03.681Z,1000.68
2018-12-07T10:41:03.667Z,1000.68
2018-12-07T10:42:03.678Z,1000.61
2018-12-07T10:43:03.645Z,1000.61
2018-12-07T10:44:03.636Z,1000.71
2018-12-07T10:45:03.625Z,1000.64
2018-12-07T10:46:03.617Z,1000.66
2018-12-07T10:47:03.631Z,1000.60
2018-12-07T10:48:03.594Z,1000.59
2018-12-07T10:49:03.585Z,1000.57
2018-12-07T10:50:03.574Z,1000.57
2018-12-07T10:51:07.846Z,1000.50
2018-12-07T10:52:03.552Z,1000.52
2018-12-07T10:53:03.552Z,1000.47
2018-12-07T10:54:03.530Z,1000.53
2018-12-07T10:55:03.520Z,1000.47
2018-12-07T10:56:03.512Z,1000.47
2018-12-07T10:57:03.499Z,1000.42
2018-12-07T10:58:03.501Z,1000.41
2018-12-07T10:59:03.482Z,1000.42
2018-12-07T11:00:03.469Z,1000.38
2018-12-07T11:01:03.458Z,1000.37
2018-12-07T11:02:03.446Z,1000.29
2018-12-07T11:03:03.444Z,1000.29
2018-12-07T11:04:03.425Z,1000.28
2018-12-07T11:05:03.417Z,1000.30
2018-12-07T11:06:03.409Z,1000.21
2018-12-07T11:07:03.394Z,1000.28
2018-12-07T11:08:03.391Z,1000.26
2018-12-07T11:09:03.372Z,1000.16
2018-12-07T11:10:03.362Z,1000.22
2018-12-07T11:11:03.355Z,1000.23
2018-12-07T11:12:03.342Z,1000.17
2018-12-07T11:13:03.374Z,1000.20
2018-12-07T11:14:03.321Z,1000.20
2018-12-07T11:15:03.309Z,1000.12
2018-12-07T11:16:03.300Z,1000.12
2018-12-07T11:17:03.293Z,1000.12
2018-12-07T11:18:03.278Z,1000.10
2018-12-07T11:19:03.276Z,1000.05
2018-12-07T11:20:03.257Z,1000.05
2018-12-07T11:21:03.249Z,1000.05
2018-12-07T11:22:03.239Z,1000.06
2018-12-07T11:23:03.231Z,1000.01
2018-12-07T11:24:03.224Z,1000.00
2018-12-07T11:25:03.207Z,999.99
2018-12-07T11:26:03.213Z,999.95
2018-12-07T11:27:03.189Z,999.98
2018-12-07T11:28:03.178Z,999.93
2018-12-07T11:29:03.173Z,999.88
2018-12-07T11:30:03.152Z,999.88
2018-12-07T11:31:03.141Z,999.86
2018-12-07T11:32:03.133Z,999.81
2018-12-07T11:33:03.123Z,999.84
2018-12-07T11:34:03.117Z,999.86
2018-12-07T11:35:03.099Z,999.75
2018-12-07T11:36:08.085Z,999.79
2018-12-07T11:37:04.077Z,999.76
2018-12-07T11:38:03.069Z,999.75
2018-12-07T11:39:03.092Z,999.75
2018-12-07T11:40:03.049Z,999.70
2018-12-07T11:41:03.036Z,999.66
2018-12-07T11:42:03.025Z,999.61
2018-12-07T11:43:03.013Z,999.60
2018-12-07T11:44:03.004Z,999.63
2018-12-07T11:45:03.004Z,999.65
2018-12-07T11:46:02.986Z,999.67
2018-12-07T11:47:02.971Z,999.63
2018-12-07T11:48:02.960Z,999.61
2018-12-07T11:49:02.949Z,999.58
2018-12-07T11:50:02.947Z,999.59
2018-12-07T11:51:02.926Z,999.57
2018-12-07T11:52:02.919Z,999.51
2018-12-07T11:53:02.906Z,999.50
2018-12-07T11:54:02.895Z,999.49
2018-12-07T11:55:02.891Z,999.47
2018-12-07T11:56:02.880Z,999.49
2018-12-07T11:57:02.864Z,999.48
2018-12-07T11:58:02.850Z,999.40
2018-12-07T11:59:02.839Z,999.41
2018-12-07T12:00:02.837Z,999.35
2018-12-07T12:01:02.819Z,999.38
2018-12-07T12:02:02.807Z,999.32
2018-12-07T12:03:02.796Z,999.34
2018-12-07T12:04:02.785Z,999.35
2018-12-07T12:05:02.783Z,999.27
2018-12-07T12:06:02.764Z,999.29
2018-12-07T12:07:02.753Z,999.30